Time;durP1;ratioP1;P1;durP2;ratioP2;P2;SDS_P1;SDS_P2;PMS_P1;PMS_P2;Temp;Humidity;BMP_temperature;BMP_pressure;BME280_temperature;BME280_humidity;BME280_pressure;Samples;Min_cycle;Max_cycle;Signal;HPM_P1;HPM_P2
2022/03/24 00:01:29;;;;;;;75.63;66.78;;;;;;;;;;5011538;28;20201;-62
2022/03/24 00:03:55;;;;;;;92.50;69.50;;;;;;;;;;5011688;28;20657;-63
2022/03/24 00:06:21;;;;;;;89.00;69.10;;;;;;;;;;5011379;28;20836;-62
2022/03/24 00:08:47;;;;;;;90.47;68.97;;;;;;;;;;5011607;28;20455;-63
2022/03/24 00:11:13;;;;;;;64.13;58.03;;;;;;;;;;5011278;28;20500;-63
2022/03/24 00:13:39;;;;;;;56.20;51.40;;;;;;;;;;5011627;28;20173;-63
2022/03/24 00:16:05;;;;;;;56.57;52.00;;;;;;;;;;5011703;28;20436;-63
2022/03/24 00:18:32;;;;;;;52.20;48.05;;;;;;;;;;5011588;28;20928;-63
2022/03/24 00:21:01;;;;;;;55.08;50.60;;;;;;;;;;5011224;28;20172;-64
2022/03/24 00:23:27;;;;;;;55.53;50.92;;;;;;;;;;5011482;28;20176;-63
2022/03/24 00:25:54;;;;;;;51.03;47.08;;;;;;;;;;5011393;28;20197;-63
2022/03/24 00:28:20;;;;;;;54.58;50.15;;;;;;;;;;5011507;28;20177;-63
2022/03/24 00:30:46;;;;;;;73.50;61.67;;;;;;;;;;5011111;28;20188;-63
2022/03/24 00:33:12;;;;;;;88.63;66.22;;;;;;;;;;5011459;28;20462;-63
2022/03/24 00:35:38;;;;;;;85.30;63.33;;;;;;;;;;5011098;28;20208;-63
2022/03/24 00:38:07;;;;;;;83.70;64.68;;;;;;;;;;5011383;28;20416;-63
2022/03/24 00:40:34;;;;;;;69.05;61.60;;;;;;;;;;5011266;28;20701;-63
2022/03/24 00:43:01;;;;;;;72.10;57.92;;;;;;;;;;5011448;28;20201;-63
2022/03/24 00:45:27;;;;;;;65.50;58.40;;;;;;;;;;5011229;28;20308;-63
2022/03/24 00:47:53;;;;;;;66.43;59.20;;;;;;;;;;5011203;28;20196;-63
2022/03/24 00:50:20;;;;;;;65.95;59.30;;;;;;;;;;5010955;28;20178;-63
2022/03/24 00:52:46;;;;;;;64.10;57.10;;;;;;;;;;5011377;28;20173;-63
2022/03/24 00:55:17;;;;;;;63.45;56.67;;;;;;;;;;5011105;28;20205;-63
2022/03/24 00:57:44;;;;;;;61.65;55.33;;;;;;;;;;5011162;28;20219;-63
2022/03/24 01:00:12;;;;;;;60.40;53.80;;;;;;;;;;5010910;28;20177;-63
2022/03/24 01:02:38;;;;;;;68.63;58.03;;;;;;;;;;5011123;28;20177;-63
2022/03/24 01:05:06;;;;;;;65.53;56.33;;;;;;;;;;5011142;28;20181;-63
2022/03/24 01:07:32;;;;;;;66.05;56.67;;;;;;;;;;5014328;28;20305;-63
2022/03/24 01:09:58;;;;;;;64.07;57.07;;;;;;;;;;5014537;28;20271;-63
2022/03/24 01:12:24;;;;;;;60.83;53.47;;;;;;;;;;5014392;28;20419;-63
2022/03/24 01:14:50;;;;;;;64.80;55.40;;;;;;;;;;5014427;28;20506;-64
2022/03/24 01:17:17;;;;;;;56.33;50.87;;;;;;;;;;5014372;28;20800;-62
2022/03/24 01:19:44;;;;;;;57.50;51.90;;;;;;;;;;5014413;28;20527;-62
2022/03/24 01:22:10;;;;;;;55.33;50.03;;;;;;;;;;5014225;28;20196;-63
2022/03/24 01:24:38;;;;;;;55.90;50.60;;;;;;;;;;5014276;28;20189;-63
2022/03/24 01:27:05;;;;;;;70.95;56.17;;;;;;;;;;5014317;28;20192;-63
2022/03/24 01:29:31;;;;;;;71.15;56.25;;;;;;;;;;5014264;28;20180;-63
2022/03/24 01:31:57;;;;;;;73.28;56.10;;;;;;;;;;5013970;28;20648;-60
2022/03/24 01:34:24;;;;;;;67.63;54.92;;;;;;;;;;5014164;28;20680;-63
2022/03/24 01:36:50;;;;;;;80.78;58.22;;;;;;;;;;5014109;28;20192;-63
2022/03/24 01:39:16;;;;;;;44.97;41.43;;;;;;;;;;5014015;28;20176;-64
2022/03/24 01:41:45;;;;;;;52.53;47.83;;;;;;;;;;5013743;28;20502;-63
2022/03/24 01:44:12;;;;;;;58.55;52.45;;;;;;;;;;5013951;28;20217;-63
2022/03/24 01:46:39;;;;;;;79.15;59.10;;;;;;;;;;5014116;28;20254;-63
2022/03/24 01:49:05;;;;;;;60.55;53.78;;;;;;;;;;5012637;28;20207;-62
2022/03/24 01:51:31;;;;;;;69.35;59.13;;;;;;;;;;5013696;28;20260;-63
2022/03/24 01:53:59;;;;;;;74.77;55.83;;;;;;;;;;5013656;28;20266;-63
2022/03/24 01:56:26;;;;;;;62.22;53.80;;;;;;;;;;5013709;28;20427;-63
2022/03/24 01:58:52;;;;;;;65.85;54.17;;;;;;;;;;5013607;28;20180;-63
2022/03/24 02:01:29;;;;;;;68.22;54.45;;;;;;;;;;5013410;28;20607;-63
2022/03/24 02:03:56;;;;;;;65.00;52.30;;;;;;;;;;5013667;28;20525;-63
2022/03/24 02:06:22;;;;;;;57.95;51.90;;;;;;;;;;5013458;28;20227;-63
2022/03/24 02:08:48;;;;;;;52.97;47.57;;;;;;;;;;5013447;28;20248;-63
2022/03/24 02:11:14;;;;;;;39.87;36.97;;;;;;;;;;5012055;28;20774;-64
2022/03/24 02:13:40;;;;;;;52.73;47.53;;;;;;;;;;5013259;28;20753;-63
2022/03/24 02:16:12;;;;;;;60.38;52.97;;;;;;;;;;5013223;28;20424;-62
2022/03/24 02:18:39;;;;;;;63.42;54.75;;;;;;;;;;5013347;28;20234;-63
2022/03/24 02:21:05;;;;;;;60.95;53.30;;;;;;;;;;5013006;28;20183;-64
2022/03/24 02:23:31;;;;;;;62.00;52.10;;;;;;;;;;5013189;28;20175;-63
2022/03/24 02:25:58;;;;;;;63.85;53.17;;;;;;;;;;5013078;28;20432;-63
2022/03/24 02:28:24;;;;;;;57.93;51.07;;;;;;;;;;5013144;28;20181;-63
2022/03/24 02:30:50;;;;;;;42.30;38.97;;;;;;;;;;5012846;28;20903;-63
2022/03/24 02:33:20;;;;;;;65.90;52.40;;;;;;;;;;5013117;28;20404;-64
2022/03/24 02:35:46;;;;;;;81.97;55.55;;;;;;;;;;5012848;28;20695;-63
2022/03/24 02:38:13;;;;;;;88.60;56.38;;;;;;;;;;5013015;28;20212;-63
2022/03/24 02:40:39;;;;;;;63.33;50.53;;;;;;;;;;5012204;28;20576;-63
2022/03/24 02:43:05;;;;;;;69.83;54.20;;;;;;;;;;5012801;28;20237;-63
2022/03/24 02:45:31;;;;;;;75.45;54.15;;;;;;;;;;5012444;28;20409;-63
2022/03/24 02:47:57;;;;;;;54.83;48.92;;;;;;;;;;5012879;28;20607;-63
2022/03/24 02:50:23;;;;;;;59.80;53.42;;;;;;;;;;5012574;28;20175;-64
2022/03/24 02:52:49;;;;;;;76.00;52.40;;;;;;;;;;5012625;28;20211;-63
2022/03/24 02:55:15;;;;;;;76.47;54.73;;;;;;;;;;5012633;28;20470;-63
2022/03/24 02:57:41;;;;;;;73.83;53.07;;;;;;;;;;5012621;28;20572;-62
2022/03/24 03:00:08;;;;;;;74.03;52.38;;;;;;;;;;5012484;28;20431;-62
2022/03/24 03:02:34;;;;;;;72.60;52.50;;;;;;;;;;5012703;28;20602;-63
2022/03/24 03:05:00;;;;;;;74.33;55.10;;;;;;;;;;5012578;28;20249;-63
2022/03/24 03:07:28;;;;;;;76.53;54.08;;;;;;;;;;5012206;28;20497;-63
2022/03/24 03:09:54;;;;;;;79.30;54.95;;;;;;;;;;5012349;28;20167;-63
2022/03/24 03:12:20;;;;;;;79.47;54.73;;;;;;;;;;5012153;28;20552;-63
2022/03/24 03:14:46;;;;;;;83.47;53.13;;;;;;;;;;5012281;28;21222;-63
2022/03/24 03:17:15;;;;;;;76.35;53.03;;;;;;;;;;5012249;28;20475;-63
2022/03/24 03:19:42;;;;;;;84.45;55.15;;;;;;;;;;5012263;28;20251;-63
2022/03/24 03:22:09;;;;;;;74.20;54.17;;;;;;;;;;5011966;28;20183;-63
2022/03/24 03:24:35;;;;;;;69.85;51.45;;;;;;;;;;5013442;28;20168;-62
2022/03/24 03:27:01;;;;;;;81.22;54.72;;;;;;;;;;5012313;28;20211;-63
2022/03/24 03:29:27;;;;;;;86.22;55.55;;;;;;;;;;5011452;28;20656;-63
2022/03/24 03:31:54;;;;;;;79.20;53.77;;;;;;;;;;5011960;28;20185;-63
2022/03/24 03:34:24;;;;;;;77.82;52.75;;;;;;;;;;5012033;28;20907;-63
2022/03/24 03:36:50;;;;;;;80.97;53.60;;;;;;;;;;5011987;28;20197;-63
2022/03/24 03:39:16;;;;;;;87.70;55.22;;;;;;;;;;5011978;28;20175;-63
2022/03/24 03:41:42;;;;;;;68.27;51.20;;;;;;;;;;5011733;28;20535;-63
2022/03/24 03:44:09;;;;;;;57.03;48.30;;;;;;;;;;5011944;28;20408;-63
2022/03/24 03:46:35;;;;;;;54.80;47.40;;;;;;;;;;5011829;28;20204;-63
2022/03/24 03:49:01;;;;;;;51.60;45.90;;;;;;;;;;5011750;28;20688;-63
2022/03/24 03:51:29;;;;;;;49.85;44.95;;;;;;;;;;5011482;28;20726;-63
2022/03/24 03:53:55;;;;;;;53.53;47.58;;;;;;;;;;5011964;28;20215;-63
2022/03/24 03:56:21;;;;;;;50.73;45.17;;;;;;;;;;5011764;28;20577;-64
2022/03/24 03:58:47;;;;;;;53.35;47.55;;;;;;;;;;5011728;28;20418;-63
2022/03/24 04:01:13;;;;;;;51.15;45.75;;;;;;;;;;5011533;28;20654;-63
2022/03/24 04:03:40;;;;;;;62.57;50.33;;;;;;;;;;5011671;28;20185;-63
2022/03/24 04:06:09;;;;;;;67.75;52.05;;;;;;;;;;5012634;28;20499;-63
2022/03/24 04:08:35;;;;;;;62.92;50.88;;;;;;;;;;5011846;28;20257;-63
2022/03/24 04:11:02;;;;;;;66.63;52.30;;;;;;;;;;5011364;28;20266;-63
2022/03/24 04:13:28;;;;;;;52.47;46.88;;;;;;;;;;5011620;28;20163;-63
2022/03/24 04:15:54;;;;;;;46.88;42.30;;;;;;;;;;5011480;28;20207;-63
2022/03/24 04:18:22;;;;;;;50.20;45.08;;;;;;;;;;5011607;28;20174;-62
2022/03/24 04:20:48;;;;;;;49.78;44.67;;;;;;;;;;5011371;28;20228;-62
2022/03/24 04:23:14;;;;;;;50.08;44.97;;;;;;;;;;5011524;28;20170;-63
2022/03/24 04:25:40;;;;;;;41.27;37.63;;;;;;;;;;5011418;28;20777;-62
2022/03/24 04:28:07;;;;;;;42.88;39.15;;;;;;;;;;5011431;28;20449;-63
2022/03/24 04:30:33;;;;;;;45.90;41.53;;;;;;;;;;5011265;28;20176;-63
2022/03/24 04:33:00;;;;;;;52.80;47.08;;;;;;;;;;5011379;28;20575;-63
2022/03/24 04:35:27;;;;;;;51.10;44.22;;;;;;;;;;5011226;28;20547;-63
2022/03/24 04:37:53;;;;;;;51.55;45.58;;;;;;;;;;5011356;28;20171;-64
2022/03/24 04:40:19;;;;;;;54.07;48.60;;;;;;;;;;5012816;28;20701;-62
2022/03/24 04:42:46;;;;;;;52.38;46.75;;;;;;;;;;5015139;28;20445;-63
2022/03/24 04:45:13;;;;;;;54.10;46.50;;;;;;;;;;5015145;28;20636;-62
2022/03/24 04:47:40;;;;;;;56.55;48.25;;;;;;;;;;5014945;28;20567;-62
2022/03/24 04:50:06;;;;;;;48.92;43.88;;;;;;;;;;5014717;28;20179;-62
2022/03/24 04:52:32;;;;;;;42.92;39.00;;;;;;;;;;5014935;28;20211;-62
2022/03/24 04:55:01;;;;;;;46.03;41.72;;;;;;;;;;5014837;28;20208;-63
2022/03/24 04:57:28;;;;;;;43.15;39.28;;;;;;;;;;5014951;28;20229;-63
2022/03/24 04:59:54;;;;;;;49.20;44.10;;;;;;;;;;5014763;28;20259;-63
2022/03/24 05:02:20;;;;;;;41.30;37.53;;;;;;;;;;5014623;28;20190;-63
2022/03/24 05:04:46;;;;;;;48.37;43.23;;;;;;;;;;5014704;28;20197;-63
2022/03/24 05:07:13;;;;;;;55.55;47.00;;;;;;;;;;5014550;28;20436;-62
2022/03/24 05:09:39;;;;;;;48.47;43.67;;;;;;;;;;5014806;28;20647;-62
2022/03/24 05:12:05;;;;;;;48.45;43.42;;;;;;;;;;5014400;28;20187;-62
2022/03/24 05:14:33;;;;;;;45.90;41.45;;;;;;;;;;5014398;28;20260;-63
2022/03/24 05:16:59;;;;;;;54.58;44.40;;;;;;;;;;5014791;28;20277;-62
2022/03/24 05:19:25;;;;;;;59.35;49.63;;;;;;;;;;5014368;28;20171;-63
2022/03/24 05:21:51;;;;;;;56.57;46.80;;;;;;;;;;5014219;28;20269;-63
2022/03/24 05:24:17;;;;;;;60.22;47.42;;;;;;;;;;5014395;28;20826;-62
2022/03/24 05:26:43;;;;;;;59.55;46.20;;;;;;;;;;5014261;28;20200;-62
2022/03/24 05:29:09;;;;;;;65.90;49.10;;;;;;;;;;5014149;28;20196;-63
2022/03/24 05:31:35;;;;;;;65.00;49.53;;;;;;;;;;5014030;28;20191;-62
2022/03/24 05:34:01;;;;;;;60.20;47.90;;;;;;;;;;5014043;28;20211;-63
2022/03/24 05:36:28;;;;;;;53.88;45.20;;;;;;;;;;5014111;28;20338;-63
2022/03/24 05:38:53;;;;;;;54.65;43.72;;;;;;;;;;5014101;28;20171;-63
2022/03/24 05:41:19;;;;;;;65.90;48.47;;;;;;;;;;5013802;28;20176;-62
2022/03/24 05:44:02;;;;;;;49.70;43.77;;;;;;;;;;5013882;28;20422;-63
2022/03/24 05:46:32;;;;;;;55.63;45.85;;;;;;;;;;5013863;28;20972;-63
2022/03/24 05:48:58;;;;;;;52.20;44.28;;;;;;;;;;5013804;28;20185;-62
2022/03/24 05:51:24;;;;;;;66.72;49.20;;;;;;;;;;5012853;28;20174;-62
2022/03/24 05:53:50;;;;;;;63.15;45.97;;;;;;;;;;5013810;28;20657;-62
2022/03/24 05:56:16;;;;;;;65.95;49.28;;;;;;;;;;5013561;28;20294;-62
2022/03/24 05:58:42;;;;;;;60.80;47.93;;;;;;;;;;5013761;28;20206;-62
2022/03/24 06:01:09;;;;;;;64.13;46.75;;;;;;;;;;5013282;28;20433;-64
2022/03/24 06:03:36;;;;;;;65.22;47.90;;;;;;;;;;5013714;28;20174;-64
2022/03/24 06:06:03;;;;;;;68.25;48.45;;;;;;;;;;5013398;28;20221;-62
2022/03/24 06:08:30;;;;;;;58.47;46.33;;;;;;;;;;5013664;28;20266;-62
2022/03/24 06:10:57;;;;;;;62.28;46.90;;;;;;;;;;5013211;28;20253;-63
2022/03/24 06:13:22;;;;;;;63.72;46.67;;;;;;;;;;5013453;28;20186;-62
2022/03/24 06:15:50;;;;;;;59.93;46.50;;;;;;;;;;5013323;28;20268;-62
2022/03/24 06:18:16;;;;;;;61.45;47.10;;;;;;;;;;5013383;28;20487;-63
2022/03/24 06:20:43;;;;;;;65.22;49.10;;;;;;;;;;5013105;28;20170;-62
2022/03/24 06:23:09;;;;;;;66.78;49.60;;;;;;;;;;5013308;28;20175;-64
2022/03/24 06:25:37;;;;;;;65.38;49.35;;;;;;;;;;5003484;28;20183;-62
2022/03/24 06:28:03;;;;;;;61.35;48.58;;;;;;;;;;4993605;28;20177;-63
2022/03/24 06:30:30;;;;;;;67.20;50.00;;;;;;;;;;4993345;28;20180;-63
2022/03/24 06:32:56;;;;;;;70.93;51.97;;;;;;;;;;4993428;28;20172;-64
2022/03/24 06:35:22;;;;;;;61.17;49.10;;;;;;;;;;4993306;28;20335;-63
2022/03/24 06:37:50;;;;;;;67.40;52.50;;;;;;;;;;4993355;28;20411;-63
2022/03/24 06:40:16;;;;;;;61.80;50.72;;;;;;;;;;4993117;28;20172;-62
2022/03/24 06:42:43;;;;;;;53.83;46.10;;;;;;;;;;4993321;28;20167;-63
2022/03/24 06:45:10;;;;;;;57.88;46.83;;;;;;;;;;4993300;28;20179;-63
2022/03/24 06:47:36;;;;;;;63.75;50.13;;;;;;;;;;4991907;28;20207;-63
2022/03/24 06:50:02;;;;;;;61.63;49.45;;;;;;;;;;4993076;28;20292;-62
2022/03/24 06:52:28;;;;;;;52.42;45.10;;;;;;;;;;4992930;28;20222;-63
2022/03/24 06:54:55;;;;;;;58.67;49.07;;;;;;;;;;4992149;28;20630;-63
2022/03/24 06:57:21;;;;;;;55.65;48.10;;;;;;;;;;4992894;28;20807;-61
2022/03/24 06:59:47;;;;;;;57.80;48.35;;;;;;;;;;4998953;28;20185;-62
2022/03/24 07:02:13;;;;;;;63.03;50.78;;;;;;;;;;5012841;28;20644;-63
2022/03/24 07:04:39;;;;;;;63.33;50.13;;;;;;;;;;5011632;28;20187;-63
2022/03/24 07:07:06;;;;;;;70.68;53.70;;;;;;;;;;5011448;28;20223;-62
2022/03/24 07:09:32;;;;;;;70.28;52.53;;;;;;;;;;5011877;28;20179;-63
2022/03/24 07:11:58;;;;;;;74.17;56.13;;;;;;;;;;5011527;28;20749;-63
2022/03/24 07:14:24;;;;;;;64.03;51.92;;;;;;;;;;5012172;28;20462;-62
2022/03/24 07:16:51;;;;;;;67.18;51.15;;;;;;;;;;5010905;28;20284;-63
2022/03/24 07:19:19;;;;;;;59.00;51.60;;;;;;;;;;5012204;28;20229;-63
2022/03/24 07:21:46;;;;;;;59.95;51.28;;;;;;;;;;5011881;28;20190;-64
2022/03/24 07:24:12;;;;;;;63.38;56.78;;;;;;;;;;5011314;28;20191;-64
2022/03/24 07:26:38;;;;;;;58.28;51.97;;;;;;;;;;5010660;28;20215;-65
2022/03/24 07:29:04;;;;;;;64.43;55.05;;;;;;;;;;5011940;28;20212;-64
2022/03/24 07:31:31;;;;;;;69.05;56.35;;;;;;;;;;5011830;28;20197;-62
2022/03/24 07:33:57;;;;;;;69.65;59.50;;;;;;;;;;5011988;28;20716;-61
2022/03/24 07:36:24;;;;;;;69.60;61.42;;;;;;;;;;5011818;28;20204;-62
2022/03/24 07:38:50;;;;;;;65.65;58.38;;;;;;;;;;5012047;28;20208;-62
2022/03/24 07:41:16;;;;;;;74.70;64.60;;;;;;;;;;5011784;28;20177;-62
2022/03/24 07:43:42;;;;;;;73.55;63.97;;;;;;;;;;5012042;28;20201;-62
2022/03/24 07:46:08;;;;;;;76.73;63.70;;;;;;;;;;5011727;28;20730;-62
2022/03/24 07:48:34;;;;;;;75.18;66.75;;;;;;;;;;5011842;28;20416;-61
2022/03/24 07:51:00;;;;;;;80.85;71.18;;;;;;;;;;5011567;28;20209;-62
2022/03/24 07:53:30;;;;;;;79.90;71.60;;;;;;;;;;5011783;28;20185;-62
2022/03/24 07:55:57;;;;;;;80.72;72.32;;;;;;;;;;5010136;28;20209;-62
2022/03/24 07:58:23;;;;;;;82.80;75.15;;;;;;;;;;5011643;28;20176;-62
2022/03/24 08:00:49;;;;;;;82.85;74.70;;;;;;;;;;5011369;28;20192;-62
2022/03/24 08:03:16;;;;;;;87.97;78.77;;;;;;;;;;5011641;28;20173;-62
2022/03/24 08:05:42;;;;;;;92.22;83.13;;;;;;;;;;5011488;28;20424;-62
2022/03/24 08:08:14;;;;;;;89.90;80.80;;;;;;;;;;5009458;28;20177;-62
2022/03/24 08:10:41;;;;;;;93.00;83.55;;;;;;;;;;5011624;28;20182;-62
2022/03/24 08:13:08;;;;;;;92.22;82.97;;;;;;;;;;5011632;28;20278;-62
2022/03/24 08:15:35;;;;;;;97.47;88.07;;;;;;;;;;5013828;28;20288;-62
2022/03/24 08:18:01;;;;;;;98.75;89.93;;;;;;;;;;5015745;28;20672;-63
2022/03/24 08:20:27;;;;;;;99.37;89.97;;;;;;;;;;5015500;28;20197;-62
2022/03/24 08:22:53;;;;;;;101.65;92.65;;;;;;;;;;5015827;28;20471;-62
2022/03/24 08:25:20;;;;;;;105.53;95.82;;;;;;;;;;5015430;28;20250;-62
2022/03/24 08:27:46;;;;;;;99.13;91.13;;;;;;;;;;5015339;28;20308;-60
2022/03/24 08:30:12;;;;;;;104.43;96.17;;;;;;;;;;5015117;28;20597;-62
2022/03/24 08:32:39;;;;;;;104.43;96.32;;;;;;;;;;5015386;28;20827;-63
2022/03/24 08:35:05;;;;;;;91.72;85.53;;;;;;;;;;5015167;28;20209;-62
2022/03/24 08:37:31;;;;;;;98.32;91.85;;;;;;;;;;5015091;28;20657;-63
2022/03/24 08:39:57;;;;;;;115.90;107.80;;;;;;;;;;5015223;28;20181;-63
2022/03/24 08:42:23;;;;;;;99.60;93.20;;;;;;;;;;5014688;28;20408;-63
2022/03/24 08:44:49;;;;;;;98.25;92.15;;;;;;;;;;5014894;28;20408;-62
2022/03/24 08:47:15;;;;;;;119.83;112.23;;;;;;;;;;5014658;28;20219;-63
2022/03/24 08:49:41;;;;;;;125.25;117.75;;;;;;;;;;5014843;28;20424;-63
2022/03/24 08:52:07;;;;;;;126.87;119.40;;;;;;;;;;5014875;28;20661;-63
2022/03/24 08:54:33;;;;;;;120.67;113.97;;;;;;;;;;5014861;28;20452;-63
2022/03/24 08:56:59;;;;;;;124.40;117.70;;;;;;;;;;5014948;28;20431;-62
2022/03/24 08:59:25;;;;;;;136.33;129.30;;;;;;;;;;5014869;28;20426;-63
2022/03/24 09:01:51;;;;;;;196.70;186.10;;;;;;;;;;5014724;28;20503;-63
2022/03/24 09:04:20;;;;;;;240.10;226.93;;;;;;;;;;5014738;28;20404;-63
2022/03/24 09:06:46;;;;;;;282.73;268.97;;;;;;;;;;5014535;28;20543;-63
2022/03/24 09:09:12;;;;;;;316.97;303.77;;;;;;;;;;5014643;28;20416;-63
2022/03/24 09:11:38;;;;;;;373.70;358.43;;;;;;;;;;5014518;28;20462;-64
2022/03/24 09:14:04;;;;;;;445.70;427.97;;;;;;;;;;5014689;28;20911;-64
2022/03/24 09:16:30;;;;;;;398.37;383.80;;;;;;;;;;5014337;28;20461;-64
2022/03/24 09:18:56;;;;;;;395.47;381.27;;;;;;;;;;5014336;28;20956;-64
2022/03/24 09:21:28;;;;;;;495.53;476.90;;;;;;;;;;5014101;28;20911;-64
2022/03/24 09:23:54;;;;;;;459.23;442.03;;;;;;;;;;5015164;28;20385;-63
2022/03/24 09:26:20;;;;;;;461.20;444.00;;;;;;;;;;5013940;28;20431;-64
2022/03/24 09:28:47;;;;;;;459.63;442.40;;;;;;;;;;5014775;28;20875;-62
2022/03/24 09:31:13;;;;;;;483.47;465.27;;;;;;;;;;5014288;28;20950;-62
2022/03/24 09:33:39;;;;;;;496.60;477.77;;;;;;;;;;5014570;28;20390;-63
2022/03/24 09:36:05;;;;;;;519.77;500.00;;;;;;;;;;5014888;28;20976;-62
2022/03/24 09:38:31;;;;;;;499.10;480.03;;;;;;;;;;5014079;28;20443;-62
2022/03/24 09:40:57;;;;;;;537.80;516.93;;;;;;;;;;5013830;28;20408;-62
2022/03/24 09:43:23;;;;;;;452.80;435.90;;;;;;;;;;5014004;28;20406;-63
2022/03/24 09:45:49;;;;;;;478.00;459.97;;;;;;;;;;5013911;28;20408;-62
2022/03/24 09:48:15;;;;;;;495.53;476.70;;;;;;;;;;5013786;28;20923;-62
2022/03/24 09:50:47;;;;;;;465.23;447.70;;;;;;;;;;5013553;28;20422;-62
2022/03/24 09:53:14;;;;;;;456.67;439.53;;;;;;;;;;5013910;28;20464;-63
2022/03/24 09:55:40;;;;;;;452.93;435.83;;;;;;;;;;5013755;28;20513;-62
2022/03/24 09:58:09;;;;;;;488.40;469.60;;;;;;;;;;5013737;28;20415;-63
2022/03/24 10:00:35;;;;;;;452.87;435.80;;;;;;;;;;5013085;28;20398;-62
2022/03/24 10:03:08;;;;;;;421.83;406.10;;;;;;;;;;5012971;28;20746;-63
2022/03/24 10:05:34;;;;;;;325.97;315.17;;;;;;;;;;5008484;28;20479;-63
2022/03/24 10:08:04;;;;;;;327.17;316.30;;;;;;;;;;5014655;28;20402;-62
2022/03/24 10:10:34;;;;;;;325.47;314.70;;;;;;;;;;5013393;28;20465;-62
2022/03/24 10:13:00;;;;;;;339.07;327.53;;;;;;;;;;5012893;28;20531;-63
2022/03/24 10:15:26;;;;;;;367.13;354.30;;;;;;;;;;5012818;28;20462;-63
2022/03/24 10:17:52;;;;;;;351.17;339.07;;;;;;;;;;5013363;28;20394;-63
2022/03/24 10:20:19;;;;;;;332.20;320.93;;;;;;;;;;5013244;28;20834;-62
2022/03/24 10:22:54;;;;;;;318.53;308.00;;;;;;;;;;5013411;28;20503;-63
2022/03/24 10:25:21;;;;;;;357.57;345.20;;;;;;;;;;5013051;28;20413;-63
2022/03/24 10:27:51;;;;;;;345.03;333.13;;;;;;;;;;5012913;28;20935;-63
2022/03/24 10:30:17;;;;;;;370.90;357.67;;;;;;;;;;5012804;28;20393;-63
2022/03/24 10:32:54;;;;;;;371.80;358.73;;;;;;;;;;5013085;28;20470;-63
2022/03/24 10:35:20;;;;;;;377.37;363.97;;;;;;;;;;5013023;28;20855;-63
2022/03/24 10:37:50;;;;;;;370.87;357.70;;;;;;;;;;5011401;28;20526;-63
2022/03/24 10:40:16;;;;;;;382.80;369.07;;;;;;;;;;5012647;28;20436;-63
2022/03/24 10:42:42;;;;;;;412.37;397.20;;;;;;;;;;5012882;28;20421;-63
2022/03/24 10:45:18;;;;;;;363.93;351.13;;;;;;;;;;5013071;28;20792;-63
2022/03/24 10:48:02;;;;;;;428.77;412.83;;;;;;;;;;5012588;28;20440;-63
2022/03/24 10:50:28;;;;;;;432.63;416.33;;;;;;;;;;5006900;28;20527;-63
2022/03/24 10:52:55;;;;;;;369.60;356.40;;;;;;;;;;5012343;28;20413;-62
2022/03/24 10:55:36;;;;;;;368.77;355.73;;;;;;;;;;5011033;28;20478;-62
2022/03/24 10:58:04;;;;;;;316.97;306.53;;;;;;;;;;5011414;28;20428;-62
2022/03/24 11:00:30;;;;;;;301.57;291.87;;;;;;;;;;5012157;28;20445;-62
2022/03/24 11:02:56;;;;;;;360.10;347.67;;;;;;;;;;5012485;28;20408;-62
2022/03/24 11:05:22;;;;;;;378.40;365.03;;;;;;;;;;5012352;28;20416;-62
2022/03/24 11:07:55;;;;;;;383.33;369.60;;;;;;;;;;5012363;28;20406;-62
2022/03/24 11:10:22;;;;;;;432.43;416.47;;;;;;;;;;5012075;28;20387;-62
2022/03/24 11:12:49;;;;;;;433.07;417.13;;;;;;;;;;5012244;28;20908;-63
2022/03/24 11:15:16;;;;;;;467.70;450.10;;;;;;;;;;5012309;28;21004;-63
2022/03/24 11:17:43;;;;;;;480.80;462.63;;;;;;;;;;5012106;28;20964;-62
2022/03/24 11:20:09;;;;;;;485.53;467.07;;;;;;;;;;5012031;28;20440;-62
2022/03/24 11:22:50;;;;;;;417.57;402.27;;;;;;;;;;5012394;28;20503;-63
2022/03/24 11:25:20;;;;;;;546.33;525.03;;;;;;;;;;5012187;28;20414;-62
2022/03/24 11:27:46;;;;;;;520.13;500.17;;;;;;;;;;5012126;28;20429;-62
2022/03/24 11:30:13;;;;;;;539.73;518.77;;;;;;;;;;5011752;28;20413;-62
2022/03/24 11:32:41;;;;;;;543.37;522.23;;;;;;;;;;5012130;28;20475;-62
2022/03/24 11:35:08;;;;;;;422.47;407.07;;;;;;;;;;5011909;28;20865;-62
2022/03/24 11:37:35;;;;;;;419.90;404.63;;;;;;;;;;5011922;28;20440;-62
2022/03/24 11:40:21;;;;;;;426.83;411.00;;;;;;;;;;5012011;28;20413;-64
2022/03/24 11:42:49;;;;;;;441.27;425.07;;;;;;;;;;5011847;28;20915;-62
2022/03/24 11:45:20;;;;;;;546.57;525.40;;;;;;;;;;5012024;28;20446;-64
2022/03/24 11:48:01;;;;;;;537.93;517.00;;;;;;;;;;5011954;28;20437;-64
2022/03/24 11:50:38;;;;;;;537.67;516.87;;;;;;;;;;5011205;28;20480;-64
2022/03/24 11:53:16;;;;;;;579.93;557.17;;;;;;;;;;5011786;28;20410;-63
2022/03/24 11:56:05;;;;;;;592.70;569.30;;;;;;;;;;5011802;28;20534;-64
2022/03/24 11:58:32;;;;;;;576.23;553.50;;;;;;;;;;5011718;28;20824;-64
2022/03/24 12:01:18;;;;;;;571.03;548.63;;;;;;;;;;5011521;28;20425;-64
2022/03/24 12:03:45;;;;;;;545.80;524.77;;;;;;;;;;5011426;28;20448;-64
2022/03/24 12:06:13;;;;;;;519.67;500.00;;;;;;;;;;5011597;28;20502;-63
2022/03/24 12:08:52;;;;;;;518.57;498.67;;;;;;;;;;5011769;28;20427;-62
2022/03/24 12:11:33;;;;;;;589.10;566.07;;;;;;;;;;5011371;28;20441;-62
2022/03/24 12:14:08;;;;;;;489.83;471.60;;;;;;;;;;5011434;28;20417;-62
2022/03/24 12:16:38;;;;;;;447.60;431.33;;;;;;;;;;5011767;28;20866;-62
2022/03/24 12:19:05;;;;;;;474.80;457.03;;;;;;;;;;5011522;28;20383;-62
2022/03/24 12:21:31;;;;;;;388.30;374.33;;;;;;;;;;5011453;28;20380;-62
2022/03/24 12:24:09;;;;;;;386.20;372.27;;;;;;;;;;5011505;28;20404;-62
2022/03/24 12:26:40;;;;;;;377.37;363.87;;;;;;;;;;5011268;28;20440;-62
2022/03/24 12:29:12;;;;;;;412.40;397.30;;;;;;;;;;5011535;28;20387;-62
2022/03/24 12:31:56;;;;;;;394.80;380.13;;;;;;;;;;5011229;28;20444;-64
2022/03/24 12:34:23;;;;;;;414.37;398.73;;;;;;;;;;5011254;28;20496;-64
2022/03/24 12:36:49;;;;;;;390.47;375.87;;;;;;;;;;5011208;28;20455;-64
2022/03/24 12:39:35;;;;;;;427.10;410.47;;;;;;;;;;5011243;28;20411;-64
2022/03/24 12:42:11;;;;;;;413.50;397.40;;;;;;;;;;5011241;28;20416;-64
2022/03/24 12:44:52;;;;;;;409.93;393.90;;;;;;;;;;5011029;28;20769;-64
2022/03/24 12:47:32;;;;;;;317.13;305.77;;;;;;;;;;5010188;28;20425;-64
2022/03/24 12:49:59;;;;;;;372.40;357.73;;;;;;;;;;5010887;28;20808;-64
2022/03/24 12:52:43;;;;;;;391.90;376.63;;;;;;;;;;5009448;28;20421;-64
2022/03/24 12:55:20;;;;;;;410.37;394.07;;;;;;;;;;5011060;28;20884;-64
2022/03/24 12:57:53;;;;;;;425.70;408.50;;;;;;;;;;5011025;28;20436;-64
2022/03/24 13:00:19;;;;;;;383.90;368.47;;;;;;;;;;5011062;28;20734;-63
2022/03/24 13:02:45;;;;;;;439.37;421.07;;;;;;;;;;5014040;28;20428;-63
2022/03/24 13:05:13;;;;;;;447.87;428.67;;;;;;;;;;5014625;28;20438;-64
2022/03/24 13:07:39;;;;;;;446.80;427.87;;;;;;;;;;5014514;28;20419;-63
2022/03/24 13:10:06;;;;;;;451.70;432.70;;;;;;;;;;5014537;28;20412;-64
2022/03/24 13:12:33;;;;;;;467.63;447.20;;;;;;;;;;5013354;28;20403;-63
2022/03/24 13:14:59;;;;;;;473.60;452.30;;;;;;;;;;5014188;28;20467;-64
2022/03/24 13:17:27;;;;;;;456.77;436.63;;;;;;;;;;5014289;28;20516;-64
2022/03/24 13:19:54;;;;;;;486.03;464.33;;;;;;;;;;5014358;28;20416;-64
2022/03/24 13:22:22;;;;;;;437.37;418.17;;;;;;;;;;5014211;28;20423;-64
2022/03/24 13:25:03;;;;;;;422.57;404.10;;;;;;;;;;5014253;28;20424;-63
2022/03/24 13:27:33;;;;;;;456.17;436.03;;;;;;;;;;5014409;28;20436;-64
2022/03/24 13:30:02;;;;;;;432.90;413.50;;;;;;;;;;5014264;28;20487;-63
2022/03/24 13:32:28;;;;;;;429.73;410.97;;;;;;;;;;5013953;28;20788;-64
2022/03/24 13:34:58;;;;;;;433.30;413.37;;;;;;;;;;5014298;28;20935;-64
2022/03/24 13:37:24;;;;;;;426.67;407.93;;;;;;;;;;5013974;28;20436;-64
2022/03/24 13:39:52;;;;;;;406.00;388.33;;;;;;;;;;5014091;28;20882;-64
2022/03/24 13:42:18;;;;;;;402.77;385.40;;;;;;;;;;5013933;28;20416;-63
2022/03/24 13:44:45;;;;;;;405.00;387.10;;;;;;;;;;5014052;28;20436;-63
2022/03/24 13:47:12;;;;;;;368.63;353.03;;;;;;;;;;5013875;28;20781;-64
2022/03/24 13:49:38;;;;;;;376.30;360.33;;;;;;;;;;5013846;28;20496;-64
2022/03/24 13:52:05;;;;;;;414.80;396.17;;;;;;;;;;5013507;28;20416;-64
2022/03/24 13:54:31;;;;;;;393.10;375.90;;;;;;;;;;4999770;28;20461;-64
2022/03/24 13:56:57;;;;;;;445.83;424.23;;;;;;;;;;4993966;28;21016;-64
2022/03/24 13:59:33;;;;;;;419.03;399.73;;;;;;;;;;4994086;28;20500;-64
2022/03/24 14:01:59;;;;;;;379.27;362.50;;;;;;;;;;4993933;28;20836;-63
2022/03/24 14:04:25;;;;;;;301.17;289.67;;;;;;;;;;4994039;28;20885;-64
2022/03/24 14:07:05;;;;;;;127.50;123.20;;;;;;;;;;4993814;28;20462;-63
2022/03/24 14:09:31;;;;;;;160.10;154.63;;;;;;;;;;4993951;28;20421;-64